• Join FlightAware (Why Join?)
  • Login
  • US Flag 
Rudolph Flight #1: Arrived! 
11:53AM EST


 

Airport Tracker/Info


-or-


 

Live Flight TrackerFlight Track Log ✈ ASH2603 ✈ 04-May-2012 ✈ KPNS - KCLT

Flight Track Log - Related Links

Times and Time Zones

All times are in EDT time to prevent confusion due to time zone crossing. See the ASH2603 flight status page for this flight to view local times or setup timezone preferences in your user account.

Time Position Orientation Groundspeed Altitude Reporting Facility
EDT Latitude Longitude Course Direction KTS MPH feet Rate Location/Type
06:55AM 30.4960 -87.1689 204° Southwest  Level FlightAware Approximate
06:55AM 30.4572 -87.1889 143° Southeast 154 177 800  Level Jacksonville Center
06:56AM 30.4106 -87.1483 35° Northeast 213 245 3,100 2,220 Climbing Jacksonville Center
06:57AM 30.4642 -87.1050 15° North 244 281 5,500 2,460 Climbing Jacksonville Center
06:58AM 30.5400 -87.0817 16° North 258 297 8,100 2,760 Climbing Jacksonville Center
06:59AM 30.6161 -87.0561 17° North 270 311 11,100 2,520 Climbing Jacksonville Center
07:00AM 30.7006 -87.0261 17° North 293 337 13,200 2,160 Climbing Jacksonville Center
07:01AM 30.7914 -86.9936 17° North 317 365 15,500 2,160 Climbing Jacksonville Center
07:02AM 30.8800 -86.9614 29° Northeast 342 394 17,600 2,100 Climbing Jacksonville Center
07:03AM 30.9631 -86.9067 37° Northeast 347 399 19,800 2,100 Climbing Jacksonville Center
07:04AM 31.0511 -86.8306 37° Northeast 347 399 21,800 1,800 Climbing Jacksonville Center
07:05AM 31.1347 -86.7564 38° Northeast 359 413 23,400 1,680 Climbing Jacksonville Center
07:06AM 31.2228 -86.6772 38° Northeast 376 433 25,200 1,680 Climbing Jacksonville Center
07:08AM 31.3536 -86.5556 36° Northeast 402 463 27,700 1,500 Climbing Atlanta Center
07:09AM 31.4472 -86.4753 38° Northeast 407 468 29,000 1,320 Climbing Atlanta Center
07:10AM 31.5364 -86.3925 38° Northeast 407 468 30,400 1,200 Climbing Atlanta Center
07:11AM 31.6297 -86.3072 37° Northeast 412 474 31,500 1,020 Climbing Atlanta Center
07:12AM 31.7275 -86.2192 38° Northeast 429 494 32,500 1,200 Climbing Atlanta Center
07:13AM 31.8228 -86.1311 37° Northeast 437 503 33,900 1,320 Climbing Atlanta Center
07:14AM 31.9161 -86.0478 38° Northeast 429 494 35,200 1,080 Climbing Atlanta Center
07:15AM 32.0114 -85.9592 39° Northeast 423 487 36,100 720 Climbing Atlanta Center
07:16AM 32.1025 -85.8728 36° Northeast 423 487 36,700 420 Climbing Atlanta Center
07:17AM 32.2039 -85.7842 39° Northeast 434 499 37,000 120 Climbing Atlanta Center
07:18AM 32.3033 -85.6903 39° Northeast 444 511 37,000  Level Atlanta Center
07:19AM 32.3983 -85.5986 38° Northeast 444 511 37,000  Level Atlanta Center
07:20AM 32.4850 -85.5186 37° Northeast 444 511 37,000  Level Atlanta Center
07:21AM 32.5819 -85.4317 38° Northeast 439 505 37,000  Level Atlanta Center
07:22AM 32.6789 -85.3419 43° Northeast 441 507 37,000  Level Atlanta Center
07:23AM 32.7678 -85.2444 57° Northeast 441 507 37,000  Level Atlanta Center
07:24AM 32.8400 -85.1094 59° Northeast 428 493 37,000  Level Atlanta Center
07:25AM 32.9056 -84.9792 59° Northeast 446 513 37,000  Level Atlanta Center
07:26AM 32.9714 -84.8461 60° Northeast 454 522 37,000  Level Atlanta Center
07:27AM 33.0369 -84.7128 59° Northeast 465 535 37,000  Level Atlanta Center
07:28AM 33.1000 -84.5869 61° Northeast 458 527 37,000  Level Atlanta Center
07:29AM 33.1611 -84.4558 59° Northeast 452 520 37,000  Level Atlanta Center
07:30AM 33.2178 -84.3417 60° Northeast 447 514 37,000 -300 Level Atlanta Center
07:31AM 33.2828 -84.2078 60° Northeast 447 514 36,500 -720 Descending Atlanta Center
07:32AM 33.3475 -84.0736 59° Northeast 453 521 35,600 -780 Descending Atlanta Center
07:33AM 33.4144 -83.9392 60° Northeast 470 541 35,000 -300 Descending Atlanta Center
07:34AM 33.4767 -83.8072 60° Northeast 465 535 35,000  Level Atlanta Center
07:35AM 33.5411 -83.6725 61° Northeast 465 535 35,000 -360 Level Atlanta Center
07:36AM 33.6033 -83.5400 60° Northeast 460 529 34,300 -900 Descending Atlanta Center
07:37AM 33.6675 -83.4072 60° Northeast 460 529 33,200 -1,140 Descending Atlanta Center
07:38AM 33.7314 -83.2719 60° Northeast 465 535 32,100 -1,320 Descending Atlanta Center
07:39AM 33.7950 -83.1414 61° Northeast 465 535 30,600 -1,740 Descending Atlanta Center
07:40AM 33.8567 -83.0081 61° Northeast 437 503 28,700 -1,920 Descending Atlanta Center
07:41AM 33.9142 -82.8847 59° Northeast 423 487 26,800 -1,740 Descending Atlanta Center
07:42AM 33.9733 -82.7639 61° Northeast 410 472 25,300 -1,200 Descending Atlanta Center
07:43AM 34.0283 -82.6453 63° Northeast 410 472 24,500 -660 Descending Atlanta Center
07:44AM 34.0792 -82.5264 60° Northeast 398 458 24,000 -300 Descending Atlanta Center
07:45AM 34.1361 -82.4075 61° Northeast 398 458 24,000  Level Atlanta Center
07:46AM 34.1908 -82.2883 61° Northeast 398 458 24,000 -300 Level Atlanta Center
07:47AM 34.2456 -82.1692 49° Northeast 398 458 23,500 -1,380 Descending Atlanta Center
07:48AM 34.3169 -82.0694 47° Northeast 398 458 21,300 -2,160 Descending Atlanta Center
07:49AM 34.3906 -81.9747 47° Northeast 385 443 19,200 -2,160 Descending Atlanta Center
07:50AM 34.4600 -81.8847 42° Northeast 372 428 17,000 -2,040 Descending Atlanta Center
07:51AM 34.5233 -81.8150 45° Northeast 370 426 15,500 -1,860 Descending Atlanta Center
07:52AM 34.5825 -81.7428 46° Northeast 361 415 14,000 -1,800 Descending Atlanta Center
07:53AM 34.6478 -81.6603 48° Northeast 341 392 12,300 -960 Descending Atlanta Center
07:54AM 34.7086 -81.5778 46° Northeast 335 386 12,100 -120 Descending Atlanta Center
07:55AM 34.7717 -81.4975 46° Northeast 326 375 12,100 -180 Level Atlanta Center
07:56AM 34.8369 -81.4144 46° Northeast 322 371 11,800 -1,020 Descending Atlanta Center
07:57AM 34.8997 -81.3339 47° Northeast 318 366 10,100 -1,380 Descending Atlanta Center
07:58AM 34.9586 -81.2561 46° Northeast 316 364 9,100 -540 Descending Atlanta Center
07:59AM 35.0194 -81.1781 49° Northeast 315 362 9,100  Level Atlanta Center
07:59AM 35.0608 -81.1203 42° Northeast 315 362 9,100  Level FAA TRACON SMA TRACON (SMA)
08:00AM 35.1053 -81.0708 North 311 358 9,100  Level FAA TRACON SMA TRACON (SMA)
08:01AM 35.1458 -81.0636 356° North 278 320 9,100 -120 Level FAA TRACON SMA TRACON (SMA)
08:01AM 35.1969 -81.0678 356° North 263 303 9,000 -840 Descending FAA TRACON SMA TRACON (SMA)
08:02AM 35.2431 -81.0714 356° North 259 298 8,000 -1,380 Descending FAA TRACON SMA TRACON (SMA)
08:03AM 35.2914 -81.0756 356° North 256 295 7,200 -1,200 Descending FAA TRACON SMA TRACON (SMA)
08:03AM 35.3386 -81.0797 357° North 244 281 6,400 -1,140 Descending FAA TRACON SMA TRACON (SMA)
08:04AM 35.3797 -81.0828 26° Northeast 231 266 5,700 -1,260 Descending FAA TRACON SMA TRACON (SMA)
08:05AM 35.4153 -81.0614 111° Southeast 234 269 4,800 -1,440 Descending FAA TRACON SMA TRACON (SMA)
08:05AM 35.4008 -81.0161 146° Southeast 217 250 3,800 -1,140 Descending FAA TRACON SMA TRACON (SMA)
08:06AM 35.3733 -80.9931 146° Southeast 188 216 3,300 -780 Descending FAA TRACON SMA TRACON (SMA)